createdAt,value
2019-05-14T00:02:12.279Z,1.60
2019-05-14T00:07:13.432Z,1.43
2019-05-14T00:12:15.883Z,1.50
2019-05-14T00:17:18.329Z,1.60
2019-05-14T00:22:21.833Z,1.43
2019-05-14T00:27:23.226Z,1.57
2019-05-14T00:32:25.694Z,1.40
2019-05-14T00:37:28.142Z,1.50
2019-05-14T00:42:31.907Z,1.53
2019-05-14T00:47:33.047Z,1.80
2019-05-14T00:52:35.501Z,1.50
2019-05-14T00:57:37.956Z,1.53
2019-05-14T01:02:41.565Z,1.80
2019-05-14T01:07:42.870Z,1.80
2019-05-14T01:12:45.333Z,1.90
2019-05-14T01:17:47.786Z,1.73
2019-05-14T01:22:51.650Z,1.80
2019-05-14T01:27:52.712Z,1.57
2019-05-14T01:32:55.163Z,1.90
2019-05-14T01:37:57.621Z,1.87
2019-05-14T01:43:02.392Z,2.00
2019-05-14T01:48:02.549Z,2.30
2019-05-14T01:53:05.011Z,2.13
2019-05-14T01:58:07.471Z,2.67
2019-05-14T02:03:11.965Z,2.40
2019-05-14T02:08:12.402Z,2.40
2019-05-14T02:13:14.862Z,2.50
2019-05-14T02:18:17.319Z,2.43
2019-05-14T02:23:19.775Z,2.10
2019-05-14T02:28:22.314Z,2.23
2019-05-14T02:33:24.702Z,2.90
2019-05-14T02:38:30.030Z,2.83
2019-05-14T02:43:29.745Z,3.43
2019-05-14T02:48:32.090Z,2.83
2019-05-14T02:53:34.554Z,2.70
2019-05-14T02:58:40.007Z,2.30
2019-05-14T03:03:40.423Z,3.47
2019-05-14T03:08:42.045Z,2.70
2019-05-14T03:13:44.476Z,2.50
2019-05-14T03:18:49.924Z,2.80
2019-05-14T03:23:50.072Z,2.40
2019-05-14T03:28:52.537Z,2.47
2019-05-14T03:33:55.027Z,2.67
2019-05-14T03:38:59.336Z,2.90
2019-05-14T03:44:00.323Z,2.67
2019-05-14T03:49:02.388Z,2.90
2019-05-14T03:54:07.885Z,2.30
2019-05-14T03:59:09.599Z,2.30
2019-05-14T04:04:10.324Z,2.27
2019-05-14T04:09:12.233Z,2.60
2019-05-14T04:14:14.700Z,2.40
2019-05-14T04:19:19.008Z,2.70
2019-05-14T04:24:20.155Z,10.23
2019-05-14T04:29:22.118Z,4.40
2019-05-14T04:34:24.586Z,2.77
2019-05-14T04:39:30.442Z,4.30
2019-05-14T04:44:29.960Z,2.93
2019-05-14T04:49:31.988Z,2.63
2019-05-14T04:54:34.443Z,2.53
2019-05-14T04:59:39.692Z,2.93
2019-05-14T05:04:41.241Z,7.90
2019-05-14T05:09:41.863Z,3.53
2019-05-14T05:14:44.325Z,2.70
2019-05-14T05:19:51.215Z,2.87
2019-05-14T05:24:49.267Z,2.60
2019-05-14T05:29:51.729Z,2.60
2019-05-14T05:34:54.208Z,2.90
2019-05-14T05:39:58.443Z,2.53
2019-05-14T05:45:00.492Z,2.90
2019-05-14T05:50:02.947Z,2.90
2019-05-14T05:55:05.463Z,2.30
2019-05-14T06:00:09.390Z,3.53
2019-05-14T06:05:10.402Z,1.90
2019-05-14T06:10:12.880Z,1.97
2019-05-14T06:15:15.345Z,1.90
2019-05-14T06:20:18.986Z,1.77
2019-05-14T06:25:21.170Z,2.10
2019-05-14T06:30:31.653Z,1.90
2019-05-14T06:35:34.119Z,1.50
2019-05-14T06:40:39.278Z,1.90
2019-05-14T06:45:39.307Z,2.07
2019-05-14T06:50:41.542Z,1.73
2019-05-14T06:55:44.027Z,1.90
2019-05-14T07:00:46.496Z,1.60
2019-05-14T07:05:49.412Z,1.63
2019-05-14T07:10:51.523Z,1.63
2019-05-14T07:15:53.987Z,1.80
2019-05-14T07:20:58.672Z,1.37
2019-05-14T07:25:59.088Z,1.40
2019-05-14T07:31:01.391Z,1.70
2019-05-14T07:36:03.864Z,1.73
2019-05-14T07:41:08.954Z,1.50
2019-05-14T07:46:08.840Z,1.53
2019-05-14T07:51:11.314Z,1.63
2019-05-14T07:56:13.809Z,1.83
2019-05-14T08:01:18.517Z,1.60
2019-05-14T08:06:19.194Z,1.40
2019-05-14T08:11:21.196Z,1.47
2019-05-14T08:16:23.681Z,1.50
2019-05-14T08:21:28.331Z,1.67
2019-05-14T08:26:29.310Z,1.70
2019-05-14T08:31:31.108Z,1.40
2019-05-14T08:36:33.562Z,1.57
2019-05-14T08:41:38.282Z,1.20
2019-05-14T08:46:39.006Z,1.60
2019-05-14T08:51:40.975Z,1.55
2019-05-14T08:56:43.434Z,1.37
2019-05-14T09:02:00.876Z,1.55
2019-05-14T09:06:48.890Z,1.58
2019-05-14T09:11:50.841Z,1.40
2019-05-14T09:16:53.440Z,1.20
2019-05-14T09:21:58.622Z,1.50
2019-05-14T09:26:59.255Z,1.83
2019-05-14T09:32:00.933Z,1.33
2019-05-14T09:37:03.363Z,1.55
2019-05-14T09:42:07.954Z,1.30
2019-05-14T09:47:08.691Z,1.90
2019-05-14T09:52:10.652Z,1.73
2019-05-14T09:57:13.141Z,1.70
2019-05-14T10:02:15.564Z,1.50
2019-05-14T10:07:18.013Z,1.83
2019-05-14T10:12:20.502Z,1.60
2019-05-14T10:17:22.993Z,1.30
2019-05-14T10:22:25.446Z,1.45
2019-05-14T10:27:28.454Z,1.73
2019-05-14T10:32:30.379Z,1.80
2019-05-14T10:37:32.862Z,1.60
2019-05-14T10:42:35.344Z,1.60
2019-05-14T10:47:38.870Z,1.77
2019-05-14T10:52:40.292Z,1.53
2019-05-14T10:57:42.750Z,2.17
2019-05-14T11:02:45.225Z,1.40
2019-05-14T11:07:48.336Z,1.70
2019-05-14T11:12:52.788Z,1.43
2019-05-14T11:17:52.619Z,1.50
2019-05-14T11:22:55.080Z,1.40
2019-05-14T11:27:58.670Z,1.50
2019-05-14T11:33:00.023Z,1.20
2019-05-14T11:38:02.517Z,1.20
2019-05-14T11:43:05.056Z,0.85
2019-05-14T11:48:08.899Z,1.20
2019-05-14T11:53:10.040Z,1.17
2019-05-14T11:58:12.502Z,1.10
2019-05-14T12:03:15.028Z,1.27
2019-05-14T12:08:18.560Z,1.37
2019-05-14T12:13:19.986Z,1.40
2019-05-14T12:18:22.443Z,1.03
2019-05-14T12:23:24.903Z,1.27
2019-05-14T12:28:29.181Z,1.10
2019-05-14T12:33:31.418Z,1.17
2019-05-14T12:38:32.303Z,1.20
2019-05-14T12:43:34.782Z,0.97
2019-05-14T12:48:38.960Z,1.20
2019-05-14T12:53:39.805Z,1.00
2019-05-14T12:58:45.708Z,1.30
2019-05-14T13:03:44.594Z,1.03
2019-05-14T13:08:49.130Z,1.10
2019-05-14T13:13:49.655Z,1.00
2019-05-14T13:18:52.112Z,0.83
2019-05-14T13:23:54.566Z,1.13
2019-05-14T13:28:58.955Z,0.93
2019-05-14T13:33:59.703Z,1.17
2019-05-14T13:39:02.016Z,0.90
2019-05-14T13:44:18.449Z,1.40
2019-05-14T13:49:06.975Z,0.90
2019-05-14T13:54:09.433Z,0.93
2019-05-14T13:59:11.942Z,1.07
2019-05-14T14:04:15.254Z,0.80
2019-05-14T14:09:16.888Z,1.00
2019-05-14T14:14:20.093Z,1.00
2019-05-14T14:19:21.846Z,1.00
2019-05-14T14:24:24.319Z,0.90
2019-05-14T14:29:26.774Z,1.53
2019-05-14T14:34:29.247Z,0.93
2019-05-14T14:39:31.738Z,1.30
2019-05-14T14:44:34.311Z,1.10
2019-05-14T14:49:42.274Z,0.90
2019-05-14T14:54:39.365Z,1.13
2019-05-14T14:59:41.824Z,1.00
2019-05-14T15:04:44.316Z,1.27
2019-05-14T15:09:48.735Z,1.20
2019-05-14T15:14:49.281Z,1.30
2019-05-14T15:19:51.755Z,1.30
2019-05-14T15:24:55.145Z,1.10
2019-05-14T15:29:59.375Z,1.23
2019-05-14T15:35:00.108Z,1.10
2019-05-14T15:40:04.140Z,1.10
2019-05-14T15:45:04.347Z,1.60
2019-05-14T15:50:09.168Z,0.97
2019-05-14T15:55:09.405Z,1.00
2019-05-14T16:00:11.899Z,1.10
2019-05-14T16:05:14.344Z,1.10
2019-05-14T16:10:16.844Z,0.93
2019-05-14T16:15:19.318Z,1.20
2019-05-14T16:20:21.803Z,1.30
2019-05-14T16:25:24.300Z,1.57
2019-05-14T16:30:28.951Z,1.20
2019-05-14T16:35:29.272Z,1.20
2019-05-14T16:40:31.746Z,1.20
2019-05-14T16:45:34.204Z,1.00
2019-05-14T16:50:36.677Z,1.47
2019-05-14T16:55:39.136Z,1.03
2019-05-14T17:00:41.621Z,1.20
2019-05-14T17:05:44.080Z,1.00
2019-05-14T17:10:48.239Z,1.10
2019-05-14T17:15:49.020Z,1.00
2019-05-14T17:20:51.529Z,1.10
2019-05-14T17:25:54.002Z,1.20
2019-05-14T17:30:56.453Z,0.90
2019-05-14T17:35:59.057Z,1.20
2019-05-14T17:41:01.390Z,1.07
2019-05-14T17:46:03.882Z,1.10
2019-05-14T17:51:09.129Z,1.00
2019-05-14T17:56:08.834Z,1.43
2019-05-14T18:01:11.317Z,1.07
2019-05-14T18:06:14.045Z,0.80
2019-05-14T18:11:18.943Z,1.10
2019-05-14T18:16:19.353Z,1.20
2019-05-14T18:21:21.472Z,1.00
2019-05-14T18:26:23.959Z,1.00
2019-05-14T18:31:26.475Z,1.20
2019-05-14T18:36:28.948Z,1.40
2019-05-14T18:41:31.417Z,1.30
2019-05-14T18:46:33.879Z,1.30
2019-05-14T18:51:36.375Z,1.10
2019-05-14T18:56:38.872Z,1.20
2019-05-14T19:01:41.329Z,0.90
2019-05-14T19:06:43.819Z,1.17
2019-05-14T19:11:48.216Z,1.13
2019-05-14T19:16:49.125Z,1.40
2019-05-14T19:21:51.268Z,1.27
2019-05-14T19:26:53.775Z,1.40
2019-05-14T19:31:56.236Z,1.30
2019-05-14T19:36:58.746Z,1.20
2019-05-14T19:42:01.230Z,1.30
2019-05-14T19:47:03.923Z,1.60
2019-05-14T19:52:08.238Z,2.33
2019-05-14T19:57:09.949Z,3.90
2019-05-14T20:02:11.471Z,2.97
2019-05-14T20:07:13.939Z,1.80
2019-05-14T20:12:18.238Z,1.50
2019-05-14T20:17:19.511Z,1.60
2019-05-14T20:22:21.352Z,1.47
2019-05-14T20:27:23.814Z,1.30
2019-05-14T20:32:26.282Z,1.03
2019-05-14T20:37:29.192Z,1.20
2019-05-14T20:42:31.297Z,1.10
2019-05-14T20:47:33.776Z,1.10
2019-05-14T20:52:36.239Z,1.30
2019-05-14T20:57:38.851Z,1.40
2019-05-14T21:02:41.170Z,1.00
2019-05-14T21:07:43.878Z,1.50
2019-05-14T21:12:48.671Z,1.40
2019-05-14T21:17:50.445Z,1.20
2019-05-14T21:22:51.080Z,1.50
2019-05-14T21:27:53.529Z,1.50
2019-05-14T21:32:56.056Z,1.30
2019-05-14T21:37:59.296Z,1.43
2019-05-14T21:43:00.967Z,1.40
2019-05-14T21:48:03.480Z,1.40
2019-05-14T21:53:08.207Z,1.43
2019-05-14T21:58:09.064Z,1.50
2019-05-14T22:03:10.893Z,1.37
2019-05-14T22:08:13.421Z,1.60
2019-05-14T22:13:18.064Z,1.50
2019-05-14T22:18:20.691Z,1.60
2019-05-14T22:23:21.200Z,1.90
2019-05-14T22:28:23.310Z,1.70
2019-05-14T22:33:25.776Z,1.63
2019-05-14T22:38:29.300Z,1.60
2019-05-14T22:43:30.683Z,1.90
2019-05-14T22:48:33.143Z,1.90
2019-05-14T22:53:35.624Z,2.13
2019-05-14T22:58:38.498Z,1.70
2019-05-14T23:03:40.561Z,1.90
2019-05-14T23:08:43.003Z,2.23
2019-05-14T23:13:45.449Z,1.80
2019-05-14T23:18:48.755Z,1.77
2019-05-14T23:23:50.600Z,1.70
2019-05-14T23:28:53.052Z,1.90
2019-05-14T23:33:55.509Z,2.50
2019-05-14T23:38:59.089Z,1.93
2019-05-14T23:44:00.399Z,2.20
2019-05-14T23:49:02.858Z,2.10
2019-05-14T23:54:05.320Z,2.00
2019-05-14T23:59:09.365Z,2.10
